PRIVATE WETTERSTATION BILLIGHEIM-ALLFELD                       ZURCK
Wetterdaten: Dienstag, 10.10.2017
Datum Zeit Temp. A. Temp. A. min Temp. A. max Feuchte A. Luftdruck Regen Wind Richtung Richtung Sonnenschein ET Solar Taupunkt Windchill Windben Empfang
10.10.2017 00:00 10,8 C 10,7 C 10,8 C 90 % 1018,8 hPa 0,0 l/m 4,8 km/h (1 Bft) SW 225 0 min 0,000 mm 0 W/m 9,2 C 10,8 C 11,3 km/h (2 Bft) 100 %
10.10.2017 00:10 10,7 C 10,7 C 10,8 C 90 % 1018,8 hPa 0,0 l/m 4,8 km/h (1 Bft) S-SW 202 0 min 0,000 mm 0 W/m 9,1 C 10,7 C 9,7 km/h (2 Bft) 100 %
10.10.2017 00:20 10,7 C 10,7 C 10,8 C 90 % 1018,7 hPa 0,0 l/m 6,4 km/h (2 Bft) S-SW 202 0 min 0,000 mm 0 W/m 9,1 C 10,7 C 11,3 km/h (2 Bft) 99 %
10.10.2017 00:30 10,7 C 10,7 C 10,8 C 90 % 1018,6 hPa 0,0 l/m 4,8 km/h (1 Bft) S-SW 202 0 min 0,000 mm 0 W/m 9,1 C 10,7 C 9,7 km/h (2 Bft) 100 %
10.10.2017 00:40 10,7 C 10,7 C 10,7 C 90 % 1018,6 hPa 0,0 l/m 4,8 km/h (1 Bft) S-SW 202 0 min 0,000 mm 0 W/m 9,1 C 10,7 C 11,3 km/h (2 Bft) 99 %
10.10.2017 00:50 10,7 C 10,6 C 10,7 C 90 % 1018,5 hPa 0,0 l/m 4,8 km/h (1 Bft) S 180 0 min 0,000 mm 0 W/m 9,1 C 10,7 C 8,0 km/h (2 Bft) 100 %
10.10.2017 01:00 10,7 C 10,6 C 10,7 C 90 % 1018,5 hPa 0,0 l/m 4,8 km/h (1 Bft) S-SO 157 0 min 0,000 mm 0 W/m 9,1 C 10,7 C 14,5 km/h (3 Bft) 99 %
10.10.2017 01:10 10,6 C 10,6 C 10,7 C 90 % 1018,5 hPa 0,0 l/m 3,2 km/h (1 Bft) S-SO 157 0 min 0,000 mm 0 W/m 9,0 C 10,6 C 9,7 km/h (2 Bft) 100 %
10.10.2017 01:20 10,6 C 10,6 C 10,6 C 90 % 1018,5 hPa 0,0 l/m 6,4 km/h (2 Bft) S-SW 202 0 min 0,000 mm 0 W/m 9,0 C 10,6 C 17,7 km/h (3 Bft) 100 %
10.10.2017 01:30 10,6 C 10,6 C 10,6 C 90 % 1018,4 hPa 0,0 l/m 4,8 km/h (1 Bft) SW 225 0 min 0,000 mm 0 W/m 9,0 C 10,6 C 16,1 km/h (3 Bft) 99 %
10.10.2017 01:40 10,5 C 10,5 C 10,6 C 90 % 1018,4 hPa 0,0 l/m 6,4 km/h (2 Bft) SW 225 0 min 0,000 mm 0 W/m 8,9 C 10,5 C 12,9 km/h (3 Bft) 100 %
10.10.2017 01:50 10,5 C 10,5 C 10,6 C 90 % 1018,4 hPa 0,0 l/m 4,8 km/h (1 Bft) W-SW 247 0 min 0,000 mm 0 W/m 8,9 C 10,5 C 9,7 km/h (2 Bft) 100 %
10.10.2017 02:00 10,5 C 10,5 C 10,5 C 90 % 1018,3 hPa 0,0 l/m 3,2 km/h (1 Bft) W-SW 247 0 min 0,000 mm 0 W/m 8,9 C 10,5 C 6,4 km/h (2 Bft) 99 %
10.10.2017 02:10 10,5 C 10,5 C 10,5 C 90 % 1018,3 hPa 0,0 l/m 6,4 km/h (2 Bft) W-SW 247 0 min 0,000 mm 0 W/m 8,9 C 10,5 C 14,5 km/h (3 Bft) 99 %
10.10.2017 02:20 10,5 C 10,5 C 10,5 C 90 % 1018,3 hPa 0,0 l/m 3,2 km/h (1 Bft) W-SW 247 0 min 0,000 mm 0 W/m 8,9 C 10,5 C 11,3 km/h (2 Bft) 99 %
10.10.2017 02:30 10,4 C 10,4 C 10,5 C 90 % 1018,2 hPa 0,0 l/m 1,6 km/h (1 Bft) W-SW 247 0 min 0,000 mm 0 W/m 8,8 C 10,4 C 6,4 km/h (2 Bft) 89 %
10.10.2017 02:40 10,4 C 10,4 C 10,4 C 90 % 1018,2 hPa 0,0 l/m 3,2 km/h (1 Bft) W-SW 247 0 min 0,000 mm 0 W/m 8,8 C 10,4 C 8,0 km/h (2 Bft) 100 %
10.10.2017 02:50 10,4 C 10,4 C 10,4 C 90 % 1018,2 hPa 0,0 l/m 3,2 km/h (1 Bft) SW 225 0 min 0,000 mm 0 W/m 8,8 C 10,4 C 8,0 km/h (2 Bft) 100 %
10.10.2017 03:00 10,3 C 10,3 C 10,4 C 90 % 1018,1 hPa 0,0 l/m 1,6 km/h (1 Bft) SW 225 0 min 0,000 mm 0 W/m 8,7 C 10,3 C 6,4 km/h (2 Bft) 100 %
10.10.2017 03:10 10,3 C 10,3 C 10,3 C 90 % 1018,1 hPa 0,0 l/m 1,6 km/h (1 Bft) SW 225 0 min 0,000 mm 0 W/m 8,7 C 10,3 C 4,8 km/h (1 Bft) 99 %
10.10.2017 03:20 10,2 C 10,2 C 10,3 C 90 % 1018,0 hPa 0,0 l/m 1,6 km/h (1 Bft) SW 225 0 min 0,000 mm 0 W/m 8,6 C 10,2 C 4,8 km/h (1 Bft) 100 %
10.10.2017 03:30 10,2 C 10,1 C 10,2 C 90 % 1017,9 hPa 0,0 l/m 1,6 km/h (1 Bft) SW 225 0 min 0,000 mm 0 W/m 8,6 C 10,2 C 3,2 km/h (1 Bft) 100 %
10.10.2017 03:40 10,1 C 10,1 C 10,1 C 90 % 1017,8 hPa 0,0 l/m 3,2 km/h (1 Bft) S 180 0 min 0,000 mm 0 W/m 8,5 C 10,1 C 9,7 km/h (2 Bft) 100 %
10.10.2017 03:50 9,9 C 9,9 C 10,1 C 90 % 1017,8 hPa 0,0 l/m 3,2 km/h (1 Bft) S 180 0 min 0,000 mm 0 W/m 8,3 C 9,9 C 8,0 km/h (2 Bft) 100 %
10.10.2017 04:00 9,9 C 9,9 C 9,9 C 90 % 1017,8 hPa 0,0 l/m 6,4 km/h (2 Bft) S-SW 202 0 min 0,000 mm 0 W/m 8,3 C 9,9 C 12,9 km/h (3 Bft) 100 %
10.10.2017 04:10 10,0 C 9,9 C 10,0 C 90 % 1017,7 hPa 0,0 l/m 8,0 km/h (2 Bft) S-SW 202 0 min 0,000 mm 0 W/m 8,4 C 8,9 C 17,7 km/h (3 Bft) 99 %
10.10.2017 04:20 10,1 C 10,0 C 10,1 C 90 % 1017,7 hPa 0,0 l/m 8,0 km/h (2 Bft) SW 225 0 min 0,000 mm 0 W/m 8,5 C 9,0 C 20,9 km/h (4 Bft) 100 %
10.10.2017 04:30 10,1 C 10,1 C 10,1 C 90 % 1017,8 hPa 0,0 l/m 3,2 km/h (1 Bft) W-SW 247 0 min 0,000 mm 0 W/m 8,5 C 10,1 C 11,3 km/h (2 Bft) 100 %
10.10.2017 04:40 10,1 C 10,1 C 10,1 C 90 % 1017,7 hPa 0,0 l/m 3,2 km/h (1 Bft) SW 225 0 min 0,000 mm 0 W/m 8,5 C 10,1 C 9,7 km/h (2 Bft) 99 %
10.10.2017 04:50 10,0 C 10,0 C 10,1 C 90 % 1017,7 hPa 0,0 l/m 3,2 km/h (1 Bft) SW 225 0 min 0,000 mm 0 W/m 8,4 C 10,0 C 8,0 km/h (2 Bft) 100 %
10.10.2017 05:00 9,9 C 9,9 C 10,0 C 90 % 1017,7 hPa 0,0 l/m 4,8 km/h (1 Bft) S-SW 202 0 min 0,000 mm 0 W/m 8,3 C 9,9 C 14,5 km/h (3 Bft) 100 %
10.10.2017 05:10 9,8 C 9,8 C 9,9 C 90 % 1017,7 hPa 0,0 l/m 1,6 km/h (1 Bft) S-SW 202 0 min 0,000 mm 0 W/m 8,2 C 9,8 C 6,4 km/h (2 Bft) 100 %
10.10.2017 05:20 9,7 C 9,7 C 9,8 C 90 % 1017,7 hPa 0,0 l/m 3,2 km/h (1 Bft) S-SW 202 0 min 0,000 mm 0 W/m 8,1 C 9,7 C 9,7 km/h (2 Bft) 99 %
10.10.2017 05:30 9,6 C 9,6 C 9,7 C 90 % 1017,6 hPa 0,0 l/m 3,2 km/h (1 Bft) S 180 0 min 0,000 mm 0 W/m 8,0 C 9,6 C 9,7 km/h (2 Bft) 100 %
10.10.2017 05:40 9,5 C 9,5 C 9,6 C 90 % 1017,7 hPa 0,0 l/m 1,6 km/h (1 Bft) S 180 0 min 0,000 mm 0 W/m 7,9 C 9,5 C 6,4 km/h (2 Bft) 99 %
10.10.2017 05:50 9,4 C 9,4 C 9,5 C 90 % 1017,7 hPa 0,0 l/m 3,2 km/h (1 Bft) S 180 0 min 0,000 mm 0 W/m 7,8 C 9,4 C 6,4 km/h (2 Bft) 100 %
10.10.2017 06:00 9,3 C 9,3 C 9,4 C 90 % 1017,7 hPa 0,0 l/m 3,2 km/h (1 Bft) S 180 0 min 0,000 mm 0 W/m 7,7 C 9,3 C 6,4 km/h (2 Bft) 100 %
10.10.2017 06:10 9,3 C 9,2 C 9,3 C 90 % 1017,7 hPa 0,0 l/m 3,2 km/h (1 Bft) S 180 0 min 0,000 mm 0 W/m 7,7 C 9,3 C 6,4 km/h (2 Bft) 100 %
10.10.2017 06:20 9,2 C 9,2 C 9,2 C 90 % 1017,6 hPa 0,0 l/m 3,2 km/h (1 Bft) S 180 0 min 0,000 mm 0 W/m 7,6 C 9,2 C 6,4 km/h (2 Bft) 100 %
10.10.2017 06:30 9,1 C 9,1 C 9,2 C 90 % 1017,6 hPa 0,0 l/m 3,2 km/h (1 Bft) S 180 0 min 0,000 mm 0 W/m 7,5 C 9,1 C 6,4 km/h (2 Bft) 99 %
10.10.2017 06:40 9,1 C 9,1 C 9,1 C 90 % 1017,6 hPa 0,0 l/m 1,6 km/h (1 Bft) S 180 0 min 0,000 mm 0 W/m 7,5 C 9,1 C 4,8 km/h (1 Bft) 100 %
10.10.2017 06:50 9,1 C 9,1 C 9,1 C 90 % 1017,6 hPa 0,0 l/m 3,2 km/h (1 Bft) S 180 0 min 0,000 mm 0 W/m 7,5 C 9,1 C 4,8 km/h (1 Bft) 100 %
10.10.2017 07:00 9,1 C 9,1 C 9,1 C 90 % 1017,5 hPa 0,0 l/m 3,2 km/h (1 Bft) S 180 0 min 0,000 mm 0 W/m 7,5 C 9,1 C 8,0 km/h (2 Bft) 100 %
10.10.2017 07:10 9,2 C 9,1 C 9,2 C 89 % 1017,6 hPa 0,0 l/m 4,8 km/h (1 Bft) S 180 0 min 0,000 mm 0 W/m 7,5 C 9,2 C 8,0 km/h (2 Bft) 100 %
10.10.2017 07:20 9,2 C 9,2 C 9,2 C 89 % 1017,5 hPa 0,0 l/m 6,4 km/h (2 Bft) S-SW 202 0 min 0,000 mm 0 W/m 7,5 C 9,2 C 14,5 km/h (3 Bft) 100 %
10.10.2017 07:30 9,3 C 9,2 C 9,3 C 89 % 1017,6 hPa 0,0 l/m 8,0 km/h (2 Bft) S-SW 202 0 min 0,000 mm 0 W/m 7,6 C 8,1 C 14,5 km/h (3 Bft) 100 %
10.10.2017 07:40 9,4 C 9,3 C 9,4 C 90 % 1017,6 hPa 0,0 l/m 6,4 km/h (2 Bft) S-SW 202 0 min 0,000 mm 7 W/m 7,8 C 9,4 C 9,7 km/h (2 Bft) 100 %
10.10.2017 07:50 9,4 C 9,4 C 9,4 C 90 % 1017,6 hPa 0,0 l/m 8,0 km/h (2 Bft) S-SW 202 0 min 0,000 mm 14 W/m 7,8 C 8,2 C 19,3 km/h (3 Bft) 100 %
10.10.2017 08:00 9,4 C 9,4 C 9,4 C 90 % 1017,7 hPa 0,0 l/m 6,4 km/h (2 Bft) S 180 0 min 0,000 mm 21 W/m 7,8 C 9,4 C 14,5 km/h (3 Bft) 99 %
10.10.2017 08:10 9,3 C 9,3 C 9,4 C 90 % 1017,8 hPa 0,0 l/m 4,8 km/h (1 Bft) S 180 0 min 0,000 mm 28 W/m 7,7 C 9,3 C 12,9 km/h (3 Bft) 100 %
10.10.2017 08:20 9,3 C 9,3 C 9,3 C 90 % 1017,8 hPa 0,0 l/m 4,8 km/h (1 Bft) S 180 0 min 0,000 mm 28 W/m 7,7 C 9,3 C 11,3 km/h (2 Bft) 100 %
10.10.2017 08:30 9,3 C 9,3 C 9,3 C 90 % 1017,9 hPa 0,0 l/m 8,0 km/h (2 Bft) S-SW 202 0 min 0,000 mm 18 W/m 7,7 C 8,1 C 16,1 km/h (3 Bft) 100 %
10.10.2017 08:40 9,4 C 9,3 C 9,4 C 90 % 1017,8 hPa 0,0 l/m 8,0 km/h (2 Bft) S-SW 202 0 min 0,000 mm 19 W/m 7,8 C 8,2 C 16,1 km/h (3 Bft) 88 %
10.10.2017 08:50 9,5 C 9,4 C 9,5 C 90 % 1017,9 hPa 0,0 l/m 8,0 km/h (2 Bft) S-SW 202 0 min 0,000 mm 26 W/m 7,9 C 8,3 C 14,5 km/h (3 Bft) 100 %
10.10.2017 09:00 9,6 C 9,5 C 9,6 C 90 % 1017,8 hPa 0,0 l/m 4,8 km/h (1 Bft) S-SW 202 0 min 0,025 mm 32 W/m 8,0 C 9,6 C 14,5 km/h (3 Bft) 100 %
10.10.2017 09:10 9,6 C 9,6 C 9,6 C 90 % 1017,9 hPa 0,0 l/m 3,2 km/h (1 Bft) S-SW 202 0 min 0,000 mm 42 W/m 8,0 C 9,6 C 8,0 km/h (2 Bft) 100 %
10.10.2017 09:20 9,6 C 9,6 C 9,6 C 90 % 1018,0 hPa 0,0 l/m 4,8 km/h (1 Bft) S-SW 202 0 min 0,000 mm 51 W/m 8,0 C 9,6 C 11,3 km/h (2 Bft) 100 %
10.10.2017 09:30 9,6 C 9,6 C 9,6 C 90 % 1018,1 hPa 0,2 l/m 3,2 km/h (1 Bft) S-SW 202 0 min 0,000 mm 60 W/m 8,0 C 9,6 C 6,4 km/h (2 Bft) 100 %
10.10.2017 09:40 9,6 C 9,6 C 9,6 C 90 % 1018,1 hPa 0,0 l/m 3,2 km/h (1 Bft) S-SW 202 0 min 0,000 mm 44 W/m 8,0 C 9,6 C 4,8 km/h (1 Bft) 100 %
10.10.2017 09:50 9,5 C 9,5 C 9,6 C 90 % 1018,2 hPa 0,0 l/m 4,8 km/h (1 Bft) S-SO 157 0 min 0,000 mm 42 W/m 7,9 C 9,5 C 8,0 km/h (2 Bft) 100 %
10.10.2017 10:00 9,4 C 9,4 C 9,5 C 90 % 1018,2 hPa 0,0 l/m 3,2 km/h (1 Bft) SO 135 0 min 0,025 mm 37 W/m 7,8 C 9,4 C 6,4 km/h (2 Bft) 100 %
10.10.2017 10:10 9,4 C 9,3 C 9,4 C 90 % 1018,2 hPa 0,0 l/m 4,8 km/h (1 Bft) SO 135 0 min 0,000 mm 51 W/m 7,8 C 9,4 C 6,4 km/h (2 Bft) 100 %
10.10.2017 10:20 9,4 C 9,4 C 9,4 C 90 % 1018,3 hPa 0,0 l/m 3,2 km/h (1 Bft) S-SO 157 0 min 0,000 mm 49 W/m 7,8 C 9,4 C 6,4 km/h (2 Bft) 100 %
10.10.2017 10:30 9,4 C 9,4 C 9,4 C 90 % 1018,2 hPa 0,0 l/m 3,2 km/h (1 Bft) S-SO 157 0 min 0,000 mm 44 W/m 7,8 C 9,4 C 6,4 km/h (2 Bft) 100 %
10.10.2017 10:40 9,4 C 9,4 C 9,4 C 90 % 1018,3 hPa 0,0 l/m 0,0 km/h (0 Bft) S-SO 157 0 min 0,000 mm 47 W/m 7,8 C 9,4 C 4,8 km/h (1 Bft) 100 %
10.10.2017 10:50 9,6 C 9,4 C 9,6 C 90 % 1018,3 hPa 0,0 l/m 1,6 km/h (1 Bft) S-SO 157 0 min 0,000 mm 49 W/m 8,0 C 9,6 C 4,8 km/h (1 Bft) 100 %
10.10.2017 11:00 9,7 C 9,6 C 9,7 C 90 % 1018,4 hPa 0,0 l/m 3,2 km/h (1 Bft) S-SW 202 0 min 0,025 mm 37 W/m 8,1 C 9,7 C 8,0 km/h (2 Bft) 100 %
10.10.2017 11:10 9,8 C 9,7 C 9,8 C 90 % 1018,5 hPa 0,0 l/m 3,2 km/h (1 Bft) S 180 0 min 0,000 mm 72 W/m 8,2 C 9,8 C 6,4 km/h (2 Bft) 100 %
10.10.2017 11:20 9,9 C 9,8 C 9,9 C 90 % 1018,4 hPa 0,0 l/m 4,8 km/h (1 Bft) S-SW 202 0 min 0,000 mm 93 W/m 8,3 C 9,9 C 9,7 km/h (2 Bft) 100 %
10.10.2017 11:30 10,1 C 9,9 C 10,1 C 90 % 1018,4 hPa 0,0 l/m 6,4 km/h (2 Bft) S-SW 202 0 min 0,000 mm 114 W/m 8,5 C 10,1 C 11,3 km/h (2 Bft) 100 %
10.10.2017 11:40 10,1 C 10,1 C 10,1 C 90 % 1018,4 hPa 0,0 l/m 4,8 km/h (1 Bft) S-SW 202 0 min 0,000 mm 91 W/m 8,5 C 10,1 C 12,9 km/h (3 Bft) 100 %
10.10.2017 11:50 10,2 C 10,1 C 10,2 C 90 % 1018,5 hPa 0,0 l/m 4,8 km/h (1 Bft) S-SW 202 0 min 0,000 mm 51 W/m 8,6 C 10,2 C 9,7 km/h (2 Bft) 100 %
10.10.2017 12:00 10,3 C 10,2 C 10,3 C 90 % 1018,5 hPa 0,0 l/m 6,4 km/h (2 Bft) S-SW 202 0 min 0,025 mm 72 W/m 8,7 C 10,3 C 11,3 km/h (2 Bft) 100 %
10.10.2017 12:10 10,3 C 10,3 C 10,4 C 90 % 1018,5 hPa 0,0 l/m 6,4 km/h (2 Bft) S-SW 202 0 min 0,000 mm 62 W/m 8,7 C 10,3 C 14,5 km/h (3 Bft) 100 %
10.10.2017 12:20 10,5 C 10,4 C 10,5 C 90 % 1018,5 hPa 0,0 l/m 4,8 km/h (1 Bft) S-SW 202 0 min 0,000 mm 58 W/m 8,9 C 10,5 C 12,9 km/h (3 Bft) 100 %
10.10.2017 12:30 10,6 C 10,4 C 10,6 C 90 % 1018,6 hPa 0,0 l/m 4,1 km/h (1 Bft) SW 217 0 min 0,002 mm 54 W/m 9,0 C 10,6 C 8,0 km/h (2 Bft) 97 %
10.10.2017 12:40 10,7 C 10,6 C 10,7 C 89 % 1018,6 hPa 0,0 l/m 5,6 km/h (1 Bft) SW 228 0 min 0,000 mm 37 W/m 9,0 C 10,7 C 14,5 km/h (3 Bft) 98 %
10.10.2017 12:50 10,8 C 10,7 C 10,8 C 89 % 1018,5 hPa 0,0 l/m 4,1 km/h (1 Bft) S-SW 212 0 min 0,000 mm 51 W/m 9,1 C 10,8 C 9,7 km/h (2 Bft) 97 %
10.10.2017 13:00 10,9 C 10,8 C 10,9 C 90 % 1018,6 hPa 0,0 l/m 4,1 km/h (1 Bft) SW 220 0 min 0,000 mm 49 W/m 9,3 C 10,9 C 9,7 km/h (2 Bft) 98 %
10.10.2017 13:10 11,0 C 10,9 C 11,0 C 90 % 1018,6 hPa 0,0 l/m 4,4 km/h (1 Bft) W-SW 246 0 min 0,025 mm 58 W/m 9,4 C 11,0 C 11,3 km/h (2 Bft) 98 %
10.10.2017 13:20 11,1 C 11,0 C 11,1 C 89 % 1018,6 hPa 0,0 l/m 7,2 km/h (2 Bft) W 265 0 min 0,000 mm 47 W/m 9,4 C 10,5 C 19,3 km/h (3 Bft) 98 %
10.10.2017 13:30 11,1 C 11,1 C 11,1 C 89 % 1018,6 hPa 0,0 l/m 7,4 km/h (2 Bft) SW 229 0 min 0,000 mm 62 W/m 9,4 C 10,4 C 16,1 km/h (3 Bft) 97 %
10.10.2017 13:40 11,2 C 11,1 C 11,2 C 90 % 1018,3 hPa 0,0 l/m 5,4 km/h (1 Bft) W-SW 245 0 min 0,000 mm 54 W/m 9,6 C 11,2 C 16,1 km/h (3 Bft) 97 %
10.10.2017 13:50 11,3 C 11,2 C 11,3 C 90 % 1018,3 hPa 0,0 l/m 5,0 km/h (1 Bft) W-SW 253 0 min 0,000 mm 46 W/m 9,7 C 11,3 C 16,1 km/h (3 Bft) 98 %
10.10.2017 14:00 11,3 C 11,3 C 11,4 C 90 % 1018,2 hPa 0,0 l/m 5,5 km/h (1 Bft) SW 218 0 min 0,000 mm 39 W/m 9,7 C 11,3 C 16,1 km/h (3 Bft) 97 %
10.10.2017 14:10 11,4 C 11,3 C 11,4 C 89 % 1018,2 hPa 0,0 l/m 5,3 km/h (1 Bft) SW 214 0 min 0,025 mm 58 W/m 9,7 C 11,4 C 16,1 km/h (3 Bft) 97 %
10.10.2017 14:20 11,5 C 11,4 C 11,5 C 89 % 1018,2 hPa 0,0 l/m 5,4 km/h (1 Bft) W 271 0 min 0,000 mm 58 W/m 9,8 C 11,5 C 14,5 km/h (3 Bft) 97 %
10.10.2017 14:30 11,6 C 11,5 C 11,6 C 89 % 1018,3 hPa 0,0 l/m 6,3 km/h (2 Bft) S-SW 211 0 min 0,000 mm 54 W/m 9,8 C 11,6 C 17,7 km/h (3 Bft) 97 %
10.10.2017 14:40 11,7 C 11,6 C 11,7 C 90 % 1018,3 hPa 0,0 l/m 7,0 km/h (2 Bft) SW 222 0 min 0,000 mm 40 W/m 10,1 C 11,3 C 16,1 km/h (3 Bft) 98 %
10.10.2017 14:50 11,7 C 11,7 C 11,7 C 90 % 1018,3 hPa 0,0 l/m 8,2 km/h (2 Bft) S-SW 213 0 min 0,000 mm 86 W/m 10,1 C 10,5 C 20,9 km/h (4 Bft) 97 %
10.10.2017 15:00 11,8 C 11,7 C 11,8 C 90 % 1018,4 hPa 0,0 l/m 7,0 km/h (2 Bft) SW 228 0 min 0,000 mm 58 W/m 10,2 C 11,4 C 16,1 km/h (3 Bft) 98 %
10.10.2017 15:10 11,9 C 11,8 C 11,9 C 90 % 1018,4 hPa 0,0 l/m 10,1 km/h (2 Bft) S-SW 209 0 min 0,025 mm 21 W/m 10,3 C 9,6 C 22,5 km/h (4 Bft) 97 %
10.10.2017 15:20 11,8 C 11,8 C 11,9 C 90 % 1018,4 hPa 0,0 l/m 12,8 km/h (3 Bft) W 271 0 min 0,001 mm 35 W/m 10,2 C 8,2 C 32,2 km/h (5 Bft) 98 %
10.10.2017 15:30 11,8 C 11,8 C 11,9 C 90 % 1018,3 hPa 0,0 l/m 9,1 km/h (2 Bft) SW 227 0 min 0,000 mm 100 W/m 10,2 C 10,1 C 22,5 km/h (4 Bft) 97 %
10.10.2017 15:40 11,9 C 11,8 C 11,9 C 90 % 1018,4 hPa 0,0 l/m 7,6 km/h (2 Bft) W-SW 242 0 min 0,000 mm 58 W/m 10,3 C 11,1 C 17,7 km/h (3 Bft) 97 %
10.10.2017 15:50 11,9 C 11,9 C 11,9 C 90 % 1018,4 hPa 0,0 l/m 6,1 km/h (2 Bft) W-SW 244 0 min 0,000 mm 32 W/m 10,3 C 11,9 C 16,1 km/h (3 Bft) 98 %
10.10.2017 16:00 11,9 C 11,9 C 11,9 C 90 % 1018,4 hPa 0,0 l/m 6,7 km/h (2 Bft) W-SW 255 0 min 0,025 mm 18 W/m 10,3 C 11,7 C 20,9 km/h (4 Bft) 98 %
10.10.2017 16:10 11,9 C 11,9 C 11,9 C 90 % 1018,5 hPa 0,0 l/m 6,5 km/h (2 Bft) SW 225 0 min 0,000 mm 47 W/m 10,3 C 11,9 C 14,5 km/h (3 Bft) 98 %
10.10.2017 16:20 11,9 C 11,9 C 11,9 C 90 % 1018,4 hPa 0,0 l/m 7,1 km/h (2 Bft) S-SW 211 0 min 0,000 mm 28 W/m 10,3 C 11,4 C 16,1 km/h (3 Bft) 97 %
10.10.2017 16:30 12,0 C 11,9 C 12,0 C 90 % 1018,6 hPa 0,0 l/m 6,9 km/h (2 Bft) SW 222 0 min 0,000 mm 23 W/m 10,4 C 11,7 C 16,1 km/h (3 Bft) 98 %
10.10.2017 16:40 12,0 C 11,9 C 12,0 C 90 % 1018,4 hPa 0,0 l/m 6,3 km/h (2 Bft) S-SW 207 0 min 0,000 mm 40 W/m 10,4 C 12,0 C 19,3 km/h (3 Bft) 97 %
10.10.2017 16:50 12,0 C 12,0 C 12,0 C 90 % 1018,5 hPa 0,0 l/m 10,3 km/h (2 Bft) S-SW 202 0 min 0,000 mm 35 W/m 10,4 C 9,6 C 24,1 km/h (4 Bft) 98 %
10.10.2017 17:00 12,1 C 12,0 C 12,1 C 90 % 1018,5 hPa 0,0 l/m 10,3 km/h (2 Bft) S-SW 204 0 min 0,026 mm 33 W/m 10,5 C 9,8 C 24,1 km/h (4 Bft) 97 %
10.10.2017 17:10 12,1 C 12,1 C 12,1 C 90 % 1018,5 hPa 0,0 l/m 9,7 km/h (2 Bft) SW 233 0 min 0,000 mm 18 W/m 10,5 C 10,1 C 25,7 km/h (4 Bft) 99 %
10.10.2017 17:20 12,1 C 12,1 C 12,1 C 90 % 1018,6 hPa 0,0 l/m 9,1 km/h (2 Bft) SW 223 0 min 0,000 mm 21 W/m 10,5 C 10,4 C 19,3 km/h (3 Bft) 100 %
10.10.2017 17:30 12,1 C 12,1 C 12,1 C 90 % 1018,6 hPa 0,0 l/m 7,1 km/h (2 Bft) SW 219 0 min 0,000 mm 32 W/m 10,5 C 11,6 C 17,7 km/h (3 Bft) 100 %
10.10.2017 17:40 12,1 C 12,1 C 12,1 C 90 % 1018,7 hPa 0,0 l/m 8,3 km/h (2 Bft) S-SO 155 0 min 0,000 mm 23 W/m 10,5 C 10,9 C 17,7 km/h (3 Bft) 100 %
10.10.2017 17:50 12,1 C 12,1 C 12,1 C 90 % 1018,7 hPa 0,0 l/m 8,4 km/h (2 Bft) SW 224 0 min 0,000 mm 23 W/m 10,5 C 10,8 C 19,3 km/h (3 Bft) 100 %
10.10.2017 18:00 12,1 C 12,1 C 12,1 C 90 % 1018,7 hPa 0,0 l/m 7,3 km/h (2 Bft) S-SW 195 0 min 0,025 mm 14 W/m 10,5 C 11,5 C 17,7 km/h (3 Bft) 99 %
10.10.2017 18:10 12,2 C 12,1 C 12,2 C 90 % 1018,7 hPa 0,0 l/m 6,9 km/h (2 Bft) S-SW 192 0 min 0,000 mm 9 W/m 10,6 C 11,9 C 16,1 km/h (3 Bft) 100 %
10.10.2017 18:20 12,2 C 12,1 C 12,2 C 90 % 1018,9 hPa 0,0 l/m 7,0 km/h (2 Bft) S-SW 211 0 min 0,000 mm 0 W/m 10,6 C 11,8 C 11,3 km/h (2 Bft) 100 %
10.10.2017 18:30 12,2 C 12,1 C 12,2 C 90 % 1019,0 hPa 0,0 l/m 8,5 km/h (2 Bft) S-SW 197 0 min 0,000 mm 0 W/m 10,6 C 10,9 C 19,3 km/h (3 Bft) 100 %
10.10.2017 18:40 12,2 C 12,1 C 12,2 C 90 % 1019,0 hPa 0,0 l/m 8,4 km/h (2 Bft) S 190 0 min 0,000 mm 0 W/m 10,6 C 10,9 C 17,7 km/h (3 Bft) 100 %
10.10.2017 18:50 12,2 C 12,2 C 12,2 C 90 % 1019,0 hPa 0,0 l/m 7,7 km/h (2 Bft) S-SW 205 0 min 0,000 mm 0 W/m 10,6 C 11,3 C 16,1 km/h (3 Bft) 100 %
10.10.2017 19:00 12,2 C 12,2 C 12,2 C 90 % 1019,0 hPa 0,0 l/m 8,6 km/h (2 Bft) S-SW 199 0 min 0,000 mm 0 W/m 10,6 C 10,8 C 17,7 km/h (3 Bft) 99 %
10.10.2017 19:10 12,2 C 12,2 C 12,2 C 90 % 1019,1 hPa 0,0 l/m 8,6 km/h (2 Bft) SW 214 0 min 0,000 mm 0 W/m 10,6 C 10,8 C 19,3 km/h (3 Bft) 100 %
10.10.2017 19:20 12,2 C 12,2 C 12,2 C 90 % 1019,1 hPa 0,0 l/m 7,3 km/h (2 Bft) S-SW 194 0 min 0,000 mm 0 W/m 10,6 C 11,6 C 16,1 km/h (3 Bft) 100 %
10.10.2017 19:30 12,2 C 12,2 C 12,2 C 90 % 1019,3 hPa 0,0 l/m 8,7 km/h (2 Bft) S-SW 206 0 min 0,000 mm 0 W/m 10,6 C 10,7 C 19,3 km/h (3 Bft) 100 %
10.10.2017 19:40 12,2 C 12,2 C 12,2 C 90 % 1019,4 hPa 0,0 l/m 7,7 km/h (2 Bft) SW 216 0 min 0,000 mm 0 W/m 10,6 C 11,3 C 17,7 km/h (3 Bft) 100 %
10.10.2017 19:50 12,3 C 12,2 C 12,3 C 90 % 1019,3 hPa 0,0 l/m 9,4 km/h (2 Bft) S-SW 204 0 min 0,000 mm 0 W/m 10,7 C 10,5 C 20,9 km/h (4 Bft) 100 %
10.10.2017 20:00 12,3 C 12,3 C 12,3 C 90 % 1019,4 hPa 0,0 l/m 7,8 km/h (2 Bft) SW 231 0 min 0,025 mm 0 W/m 10,7 C 11,4 C 17,7 km/h (3 Bft) 100 %
10.10.2017 20:10 12,3 C 12,3 C 12,3 C 90 % 1019,5 hPa 0,0 l/m 8,0 km/h (2 Bft) SW 229 0 min 0,000 mm 0 W/m 10,7 C 11,3 C 17,7 km/h (3 Bft) 100 %
10.10.2017 20:20 12,3 C 12,3 C 12,3 C 90 % 1019,5 hPa 0,0 l/m 5,0 km/h (1 Bft) S 188 0 min 0,000 mm 0 W/m 10,7 C 12,3 C 11,3 km/h (2 Bft) 100 %
10.10.2017 20:30 12,3 C 12,3 C 12,3 C 90 % 1019,6 hPa 0,0 l/m 6,5 km/h (2 Bft) SW 214 0 min 0,000 mm 0 W/m 10,7 C 12,3 C 17,7 km/h (3 Bft) 100 %
10.10.2017 20:40 12,2 C 12,2 C 12,3 C 90 % 1019,6 hPa 0,0 l/m 7,7 km/h (2 Bft) S-SW 203 0 min 0,000 mm 0 W/m 10,6 C 11,3 C 16,1 km/h (3 Bft) 100 %
10.10.2017 20:50 12,2 C 12,2 C 12,3 C 90 % 1019,7 hPa 0,0 l/m 6,0 km/h (2 Bft) S-SW 193 0 min 0,000 mm 0 W/m 10,6 C 12,2 C 12,9 km/h (3 Bft) 100 %
10.10.2017 21:00 12,2 C 12,2 C 12,2 C 90 % 1019,8 hPa 0,0 l/m 7,7 km/h (2 Bft) S-SW 202 0 min 0,026 mm 0 W/m 10,6 C 11,3 C 16,1 km/h (3 Bft) 100 %
10.10.2017 21:10 12,2 C 12,2 C 12,2 C 90 % 1019,8 hPa 0,0 l/m 4,8 km/h (1 Bft) S-SW 202 0 min 0,000 mm 0 W/m 10,6 C 12,2 C 9,7 km/h (2 Bft) 100 %
10.10.2017 21:20 12,2 C 12,2 C 12,2 C 90 % 1019,7 hPa 0,0 l/m 4,8 km/h (1 Bft) S-SW 202 0 min 0,000 mm 0 W/m 10,6 C 12,2 C 14,5 km/h (3 Bft) 100 %
10.10.2017 21:30 12,2 C 12,2 C 12,2 C 90 % 1019,8 hPa 0,0 l/m 6,4 km/h (2 Bft) S-SW 202 0 min 0,000 mm 0 W/m 10,6 C 12,2 C 16,1 km/h (3 Bft) 100 %
10.10.2017 21:40 12,1 C 12,1 C 12,2 C 90 % 1019,9 hPa 0,0 l/m 4,8 km/h (1 Bft) S-SW 202 0 min 0,000 mm 0 W/m 10,5 C 12,1 C 11,3 km/h (2 Bft) 100 %
10.10.2017 21:50 12,1 C 12,1 C 12,1 C 90 % 1019,6 hPa 0,0 l/m 6,4 km/h (2 Bft) S-SW 202 0 min 0,000 mm 0 W/m 10,5 C 12,1 C 12,9 km/h (3 Bft) 100 %
10.10.2017 22:00 11,9 C 11,9 C 12,1 C 90 % 1019,7 hPa 0,0 l/m 4,8 km/h (1 Bft) S-SW 202 0 min 0,000 mm 0 W/m 10,3 C 11,9 C 9,7 km/h (2 Bft) 100 %
10.10.2017 22:10 11,7 C 11,7 C 11,9 C 90 % 1020,0 hPa 0,0 l/m 6,4 km/h (2 Bft) S-SW 202 0 min 0,000 mm 0 W/m 10,1 C 11,7 C 11,3 km/h (2 Bft) 100 %
10.10.2017 22:20 11,7 C 11,7 C 11,7 C 90 % 1019,9 hPa 0,0 l/m 3,2 km/h (1 Bft) S-SW 202 0 min 0,000 mm 0 W/m 10,1 C 11,7 C 6,4 km/h (2 Bft) 100 %
10.10.2017 22:30 11,7 C 11,7 C 11,7 C 90 % 1019,9 hPa 0,0 l/m 4,8 km/h (1 Bft) S-SW 202 0 min 0,000 mm 0 W/m 10,1 C 11,7 C 14,5 km/h (3 Bft) 100 %
10.10.2017 22:40 11,6 C 11,6 C 11,7 C 90 % 1019,8 hPa 0,0 l/m 4,8 km/h (1 Bft) S-SW 202 0 min 0,000 mm 0 W/m 10,0 C 11,6 C 9,7 km/h (2 Bft) 100 %
10.10.2017 22:50 11,3 C 11,3 C 11,6 C 90 % 1019,8 hPa 0,0 l/m 3,2 km/h (1 Bft) S-SW 202 0 min 0,000 mm 0 W/m 9,7 C 11,3 C 8,0 km/h (2 Bft) 100 %
10.10.2017 23:00 11,3 C 11,2 C 11,3 C 90 % 1019,7 hPa 0,0 l/m 1,6 km/h (1 Bft) S 180 0 min 0,000 mm 0 W/m 9,7 C 11,3 C 6,4 km/h (2 Bft) 100 %
10.10.2017 23:10 11,2 C 11,2 C 11,3 C 90 % 1019,9 hPa 0,0 l/m 1,6 km/h (1 Bft) S-SO 157 0 min 0,000 mm 0 W/m 9,6 C 11,2 C 8,0 km/h (2 Bft) 100 %
10.10.2017 23:20 11,3 C 11,2 C 11,3 C 90 % 1020,0 hPa 0,0 l/m 1,6 km/h (1 Bft) S-SO 157 0 min 0,000 mm 0 W/m 9,7 C 11,3 C 6,4 km/h (2 Bft) 99 %
10.10.2017 23:30 11,4 C 11,3 C 11,4 C 90 % 1020,1 hPa 0,0 l/m 0,0 km/h (0 Bft) S-SO 157 0 min 0,000 mm 0 W/m 9,8 C 11,4 C 4,8 km/h (1 Bft) 100 %
10.10.2017 23:40 11,4 C 11,4 C 11,4 C 90 % 1020,0 hPa 0,0 l/m 1,6 km/h (1 Bft) S 180 0 min 0,000 mm 0 W/m 9,8 C 11,4 C 6,4 km/h (2 Bft) 100 %
10.10.2017 23:50 11,4 C 11,4 C 11,4 C 90 % 1019,9 hPa 0,0 l/m 1,6 km/h (1 Bft) S 180 0 min 0,000 mm 0 W/m 9,8 C 11,4 C 6,4 km/h (2 Bft) 100 %
_ Min-Zeit 06:30 06:30 06:40 07:10 07:00 - 10:40 - - - - - 07:10 07:30 03:30 08:40
Minimum _ 9,1 C 9,1 C 9,1 C 89 % 1017,5 hPa - 0,0 km/h (0 Bft) - - - - - 7,5 C 8,1 C 3,2 km/h (1 Bft) 88 %
_ Max-Zeit 19:50 20:00 19:50 00:00 23:30 09:30 15:20 - - 00:00 17:00 11:30 19:50 20:20 15:20 00:10
Maximum _ 12,3 C 12,3 C 12,3 C 90 % 1020,1 hPa 0,2 l/m 12,8 km/h
W (3 Bft)
- - 0 min 0,026 mm 114 W/m 10,7 C 12,3 C 32,2 km/h
SW (5 Bft)
100 %
Durchschnitt _ 10,8 C 10,8 C 10,8 C 90 % 1018,5 hPa #0,2 l/m 5,3 km/h (1 Bft) S-SW - #0 min. #0,305 mm 44 W/m 9,2 C 10,5 C 12,6 km/h (3 Bft) 99 %
PRIVATE WETTERSTATION BILLIGHEIM-ALLFELD - www.neckar-odenwald-wetter.de - Holger Sonntag